Time;durP1;ratioP1;P1;durP2;ratioP2;P2;SDS_P1;SDS_P2;PMS_P1;PMS_P2;Temp;Humidity;BMP_temperature;BMP_pressure;BME280_temperature;BME280_humidity;BME280_pressure;Samples;Min_cycle;Max_cycle;Signal;HPM_P1;HPM_P2
2022/10/18 00:00:19;;;;;;;59.67;3.87;;;;;;;;;;5111979;28;20448;-68
2022/10/18 00:02:46;;;;;;;59.03;3.50;;;;;;;;;;5111734;28;20803;-68
2022/10/18 00:05:13;;;;;;;63.70;3.70;;;;;;;;;;5111728;28;20448;-68
2022/10/18 00:07:40;;;;;;;59.00;3.60;;;;;;;;;;5112171;28;20456;-68
2022/10/18 00:10:08;;;;;;;59.40;3.60;;;;;;;;;;5112007;28;20459;-68
2022/10/18 00:12:37;;;;;;;59.90;4.17;;;;;;;;;;5111988;28;20456;-68
2022/10/18 00:15:04;;;;;;;59.83;4.10;;;;;;;;;;5112108;28;20455;-68
2022/10/18 00:17:32;;;;;;;61.00;4.07;;;;;;;;;;5111918;28;20461;-68
2022/10/18 00:19:59;;;;;;;58.87;3.37;;;;;;;;;;5111593;28;20549;-68
2022/10/18 00:22:26;;;;;;;59.07;4.17;;;;;;;;;;5112199;28;20447;-68
2022/10/18 00:24:53;;;;;;;60.27;3.87;;;;;;;;;;5112103;28;20448;-68
2022/10/18 00:27:20;;;;;;;61.93;4.07;;;;;;;;;;5111829;28;20495;-68
2022/10/18 00:29:48;;;;;;;60.30;4.07;;;;;;;;;;5111704;28;20451;-68
2022/10/18 00:32:16;;;;;;;58.90;3.37;;;;;;;;;;5111741;28;20455;-68
2022/10/18 00:34:43;;;;;;;58.70;3.70;;;;;;;;;;5111970;28;20807;-68
2022/10/18 00:37:10;;;;;;;62.60;4.63;;;;;;;;;;5112041;28;20469;-68
2022/10/18 00:39:37;;;;;;;59.47;3.27;;;;;;;;;;5111618;28;20462;-68
2022/10/18 00:42:04;;;;;;;58.70;3.20;;;;;;;;;;5111816;28;20451;-68
2022/10/18 00:44:50;;;;;;;60.20;3.60;;;;;;;;;;5111850;28;20446;-68
2022/10/18 00:47:20;;;;;;;59.77;4.07;;;;;;;;;;5111527;28;21019;-68
2022/10/18 00:49:49;;;;;;;59.73;3.30;;;;;;;;;;5111356;28;20445;-68
2022/10/18 00:52:17;;;;;;;63.60;4.20;;;;;;;;;;5111911;28;20457;-68
2022/10/18 00:54:45;;;;;;;58.70;3.30;;;;;;;;;;5111652;28;20457;-68
2022/10/18 00:57:13;;;;;;;59.53;3.20;;;;;;;;;;5111587;28;20470;-68
2022/10/18 00:59:40;;;;;;;60.03;4.23;;;;;;;;;;5111191;28;20456;-68
2022/10/18 01:02:08;;;;;;;61.13;5.10;;;;;;;;;;5111779;28;20460;-68
2022/10/18 01:04:36;;;;;;;60.37;4.53;;;;;;;;;;5111747;28;20459;-68
2022/10/18 01:07:07;;;;;;;61.07;3.30;;;;;;;;;;5111627;28;20494;-68
2022/10/18 01:09:39;;;;;;;58.70;3.20;;;;;;;;;;5111289;28;20971;-68
2022/10/18 01:12:14;;;;;;;58.70;3.30;;;;;;;;;;5111592;28;20838;-68
2022/10/18 01:14:45;;;;;;;59.57;3.70;;;;;;;;;;5112592;28;20456;-68
2022/10/18 01:17:15;;;;;;;58.90;3.10;;;;;;;;;;5115427;28;20468;-68
2022/10/18 01:19:53;;;;;;;59.90;3.87;;;;;;;;;;5115014;28;20459;-68
2022/10/18 01:22:23;;;;;;;60.50;4.00;;;;;;;;;;5115138;28;20487;-68
2022/10/18 01:24:58;;;;;;;59.67;3.80;;;;;;;;;;5115383;28;20652;-68
2022/10/18 01:27:31;;;;;;;58.80;3.40;;;;;;;;;;5115188;28;20488;-68
2022/10/18 01:30:08;;;;;;;62.17;4.97;;;;;;;;;;5114819;28;20453;-68
2022/10/18 01:32:38;;;;;;;59.87;3.70;;;;;;;;;;5115033;28;20449;-68
2022/10/18 01:35:08;;;;;;;61.37;4.40;;;;;;;;;;5114887;28;20461;-68
2022/10/18 01:37:36;;;;;;;60.07;4.23;;;;;;;;;;5114817;28;20468;-69
2022/10/18 01:40:06;;;;;;;59.77;4.00;;;;;;;;;;5114587;28;20444;-68
2022/10/18 01:42:33;;;;;;;60.17;3.90;;;;;;;;;;5112984;28;20445;-68
2022/10/18 01:45:02;;;;;;;59.67;3.90;;;;;;;;;;5114927;27;20456;-68
2022/10/18 01:47:29;;;;;;;58.30;3.40;;;;;;;;;;5114566;28;21000;-68
2022/10/18 01:49:59;;;;;;;60.90;3.80;;;;;;;;;;5114391;28;20444;-68
2022/10/18 01:52:27;;;;;;;58.47;3.30;;;;;;;;;;5114615;28;20463;-68
2022/10/18 01:54:55;;;;;;;58.80;3.50;;;;;;;;;;5114442;28;20458;-68
2022/10/18 01:57:25;;;;;;;58.97;3.40;;;;;;;;;;5114736;28;20465;-68
2022/10/18 01:59:55;;;;;;;58.87;3.77;;;;;;;;;;5114265;28;20475;-68
2022/10/18 02:02:28;;;;;;;59.07;3.43;;;;;;;;;;5114545;27;20846;-68
2022/10/18 02:05:03;;;;;;;59.00;3.63;;;;;;;;;;5114369;28;20456;-68
2022/10/18 02:07:34;;;;;;;59.67;3.90;;;;;;;;;;5114112;28;20999;-68
2022/10/18 02:10:04;;;;;;;59.80;3.90;;;;;;;;;;5113960;28;20451;-68
2022/10/18 02:12:33;;;;;;;60.77;4.87;;;;;;;;;;5114421;28;20456;-68
2022/10/18 02:15:01;;;;;;;59.07;3.87;;;;;;;;;;5114152;28;20445;-68
2022/10/18 02:17:29;;;;;;;61.23;3.60;;;;;;;;;;5114091;28;20480;-68
2022/10/18 02:19:57;;;;;;;59.17;3.87;;;;;;;;;;5113750;28;20459;-68
2022/10/18 02:22:26;;;;;;;58.47;3.60;;;;;;;;;;5114075;28;20448;-68
2022/10/18 02:24:56;;;;;;;59.00;3.93;;;;;;;;;;5114176;28;20449;-68
2022/10/18 02:27:24;;;;;;;59.40;3.90;;;;;;;;;;5113060;27;20485;-68
2022/10/18 02:29:51;;;;;;;59.43;3.50;;;;;;;;;;5113615;28;20448;-68
2022/10/18 02:32:20;;;;;;;58.70;3.63;;;;;;;;;;5113750;28;20460;-68
2022/10/18 02:34:49;;;;;;;59.70;3.67;;;;;;;;;;5113829;28;20460;-68
2022/10/18 02:37:17;;;;;;;59.47;3.60;;;;;;;;;;5113850;28;20465;-68
2022/10/18 02:39:46;;;;;;;58.70;3.40;;;;;;;;;;5113454;28;20456;-68
2022/10/18 02:42:15;;;;;;;59.00;3.53;;;;;;;;;;5113734;28;20456;-68
2022/10/18 02:44:42;;;;;;;58.63;3.30;;;;;;;;;;5113519;28;20470;-68
2022/10/18 02:47:10;;;;;;;60.17;3.97;;;;;;;;;;5113188;28;20512;-68
2022/10/18 02:49:37;;;;;;;58.90;3.33;;;;;;;;;;5113376;28;20445;-68
2022/10/18 02:52:05;;;;;;;60.87;3.70;;;;;;;;;;5113347;28;20464;-68
2022/10/18 02:54:32;;;;;;;63.50;3.63;;;;;;;;;;5113490;28;20471;-68
2022/10/18 02:56:59;;;;;;;60.20;3.80;;;;;;;;;;5113335;28;20462;-68
2022/10/18 02:59:27;;;;;;;60.10;3.63;;;;;;;;;;5112886;28;20453;-68
2022/10/18 03:01:54;;;;;;;59.37;3.53;;;;;;;;;;5113526;28;20445;-68
2022/10/18 03:04:21;;;;;;;58.30;3.40;;;;;;;;;;5113342;28;20460;-68
2022/10/18 03:06:49;;;;;;;59.00;3.50;;;;;;;;;;5113165;28;20524;-68
2022/10/18 03:09:16;;;;;;;62.00;3.47;;;;;;;;;;5112945;28;20457;-68
2022/10/18 03:11:43;;;;;;;59.80;3.80;;;;;;;;;;5113100;28;20444;-68
2022/10/18 03:14:10;;;;;;;58.77;3.60;;;;;;;;;;5112871;28;20453;-68
2022/10/18 03:16:38;;;;;;;59.07;3.87;;;;;;;;;;5113074;28;20458;-68
2022/10/18 03:19:05;;;;;;;59.80;3.97;;;;;;;;;;5112783;28;20939;-68
2022/10/18 03:21:32;;;;;;;59.07;3.83;;;;;;;;;;5112965;28;20453;-68
2022/10/18 03:24:00;;;;;;;61.33;3.60;;;;;;;;;;5112703;28;20455;-68
2022/10/18 03:26:27;;;;;;;58.50;3.10;;;;;;;;;;5112614;28;20807;-68
2022/10/18 03:28:55;;;;;;;59.27;3.87;;;;;;;;;;5112627;28;20451;-68
2022/10/18 03:31:22;;;;;;;61.80;3.70;;;;;;;;;;5112880;27;20796;-68
2022/10/18 03:33:50;;;;;;;58.93;3.73;;;;;;;;;;5112772;28;20453;-68
2022/10/18 03:36:17;;;;;;;60.77;3.77;;;;;;;;;;5112635;28;20988;-68
2022/10/18 03:38:44;;;;;;;60.90;4.33;;;;;;;;;;5112180;28;20455;-68
2022/10/18 03:41:11;;;;;;;58.80;3.80;;;;;;;;;;5112370;28;20453;-68
2022/10/18 03:43:38;;;;;;;59.07;3.30;;;;;;;;;;5112923;28;20467;-68
2022/10/18 03:46:06;;;;;;;59.40;3.30;;;;;;;;;;5112632;28;20469;-68
2022/10/18 03:48:33;;;;;;;59.00;3.50;;;;;;;;;;5112318;28;20492;-69
2022/10/18 03:51:01;;;;;;;59.17;4.20;;;;;;;;;;5113280;28;20449;-68
2022/10/18 03:53:28;;;;;;;59.27;3.73;;;;;;;;;;5112348;28;20445;-68
2022/10/18 03:55:56;;;;;;;59.57;4.20;;;;;;;;;;5112643;28;20460;-68
2022/10/18 03:58:23;;;;;;;59.00;3.70;;;;;;;;;;5112742;28;20449;-68
2022/10/18 04:00:50;;;;;;;63.57;4.13;;;;;;;;;;5112353;28;20448;-68
2022/10/18 04:03:18;;;;;;;58.87;3.60;;;;;;;;;;5112257;28;20445;-68
2022/10/18 04:05:45;;;;;;;59.37;3.80;;;;;;;;;;5112321;28;20466;-68
2022/10/18 04:08:14;;;;;;;59.30;3.43;;;;;;;;;;5112220;28;20489;-68
2022/10/18 04:10:41;;;;;;;58.53;3.27;;;;;;;;;;5112429;28;20912;-68
2022/10/18 04:13:08;;;;;;;58.57;3.43;;;;;;;;;;5112374;28;20933;-68
2022/10/18 04:15:36;;;;;;;58.60;3.40;;;;;;;;;;5111985;28;20999;-68
2022/10/18 04:18:03;;;;;;;58.80;3.40;;;;;;;;;;5112013;28;20436;-68
2022/10/18 04:20:30;;;;;;;59.27;4.50;;;;;;;;;;5111852;28;20932;-68
2022/10/18 04:22:57;;;;;;;59.10;3.90;;;;;;;;;;5111959;28;20496;-68
2022/10/18 04:25:26;;;;;;;59.07;4.00;;;;;;;;;;5111887;28;20492;-68
2022/10/18 04:27:53;;;;;;;58.90;3.67;;;;;;;;;;5112148;28;20557;-68
2022/10/18 04:30:20;;;;;;;59.00;3.80;;;;;;;;;;5111650;28;20444;-68
2022/10/18 04:32:47;;;;;;;58.60;3.27;;;;;;;;;;5112002;28;20452;-68
2022/10/18 04:35:14;;;;;;;59.17;3.70;;;;;;;;;;5111578;28;20460;-68
2022/10/18 04:37:41;;;;;;;60.27;4.47;;;;;;;;;;5112151;28;20451;-68
2022/10/18 04:40:09;;;;;;;58.90;3.50;;;;;;;;;;5112240;28;20444;-68
2022/10/18 04:42:37;;;;;;;59.03;4.00;;;;;;;;;;5112473;28;20831;-68
2022/10/18 04:45:05;;;;;;;61.50;3.70;;;;;;;;;;5112527;28;20453;-68
2022/10/18 04:47:32;;;;;;;74.90;3.70;;;;;;;;;;5112152;28;20488;-68
2022/10/18 04:49:59;;;;;;;60.50;4.10;;;;;;;;;;5112971;28;20443;-68
2022/10/18 04:52:26;;;;;;;58.60;3.23;;;;;;;;;;5116323;28;20453;-68
2022/10/18 04:54:53;;;;;;;59.07;3.33;;;;;;;;;;5116033;28;20445;-68
2022/10/18 04:57:20;;;;;;;60.10;3.33;;;;;;;;;;5116196;27;20826;-68
2022/10/18 04:59:48;;;;;;;59.73;3.53;;;;;;;;;;5115725;28;20451;-68
2022/10/18 05:02:16;;;;;;;59.47;3.50;;;;;;;;;;5115863;28;20819;-68
2022/10/18 05:04:43;;;;;;;58.90;3.90;;;;;;;;;;5115814;28;20448;-68
2022/10/18 05:07:10;;;;;;;59.97;3.70;;;;;;;;;;5115910;27;20484;-68
2022/10/18 05:09:37;;;;;;;59.33;3.63;;;;;;;;;;5115352;28;20463;-68
2022/10/18 05:12:04;;;;;;;59.77;3.90;;;;;;;;;;5115933;28;20622;-68
2022/10/18 05:14:31;;;;;;;58.70;3.70;;;;;;;;;;5115702;28;20449;-68
2022/10/18 05:17:00;;;;;;;59.80;3.47;;;;;;;;;;5115562;27;20827;-68
2022/10/18 05:19:27;;;;;;;60.00;4.20;;;;;;;;;;5115821;28;20796;-68
2022/10/18 05:21:54;;;;;;;59.27;3.70;;;;;;;;;;5116242;28;20448;-68
2022/10/18 05:24:21;;;;;;;58.60;3.40;;;;;;;;;;5115661;28;20456;-68
2022/10/18 05:26:48;;;;;;;58.90;3.53;;;;;;;;;;5115667;28;20468;-68
2022/10/18 05:29:15;;;;;;;59.20;3.77;;;;;;;;;;5115175;28;20449;-68
2022/10/18 05:31:42;;;;;;;60.97;4.00;;;;;;;;;;5114940;28;20449;-68
2022/10/18 05:34:11;;;;;;;59.67;3.47;;;;;;;;;;5115147;28;20453;-68
2022/10/18 05:36:38;;;;;;;58.70;3.03;;;;;;;;;;5115048;28;20472;-68
2022/10/18 05:39:05;;;;;;;59.77;3.67;;;;;;;;;;5114476;28;20445;-68
2022/10/18 05:41:32;;;;;;;59.97;4.20;;;;;;;;;;5114908;28;20448;-68
2022/10/18 05:44:03;;;;;;;61.30;3.80;;;;;;;;;;5114669;28;20457;-68
2022/10/18 05:46:30;;;;;;;58.70;3.43;;;;;;;;;;5114388;28;20962;-68
2022/10/18 05:48:57;;;;;;;59.97;3.70;;;;;;;;;;5114341;28;21010;-68
2022/10/18 05:51:26;;;;;;;60.47;3.70;;;;;;;;;;5114502;28;20448;-68
2022/10/18 05:53:53;;;;;;;58.77;3.60;;;;;;;;;;5114574;28;20449;-68
2022/10/18 05:56:20;;;;;;;59.63;3.70;;;;;;;;;;5114551;28;20469;-68
2022/10/18 05:58:50;;;;;;;59.67;3.97;;;;;;;;;;5114174;28;20964;-68
2022/10/18 06:01:17;;;;;;;60.40;3.70;;;;;;;;;;5113135;28;20487;-68
2022/10/18 06:03:44;;;;;;;59.20;3.47;;;;;;;;;;5114616;28;20444;-69
2022/10/18 06:06:12;;;;;;;59.40;3.90;;;;;;;;;;5114296;28;21109;-68
2022/10/18 06:08:41;;;;;;;60.17;4.47;;;;;;;;;;5113867;28;20480;-68
2022/10/18 06:11:09;;;;;;;59.73;3.67;;;;;;;;;;5114249;28;21008;-68
2022/10/18 06:13:40;;;;;;;60.00;4.30;;;;;;;;;;5114200;28;20979;-68
2022/10/18 06:16:07;;;;;;;60.23;4.23;;;;;;;;;;5114351;27;20480;-68
2022/10/18 06:18:34;;;;;;;59.00;4.17;;;;;;;;;;5113951;28;20531;-68
2022/10/18 06:21:01;;;;;;;61.47;4.00;;;;;;;;;;5114230;28;20451;-68
2022/10/18 06:23:29;;;;;;;59.87;4.10;;;;;;;;;;5113990;28;20452;-68
2022/10/18 06:26:00;;;;;;;60.60;4.37;;;;;;;;;;5113873;27;20464;-69
2022/10/18 06:28:27;;;;;;;65.70;4.17;;;;;;;;;;5114126;28;20503;-68
2022/10/18 06:30:54;;;;;;;60.50;3.53;;;;;;;;;;5113880;28;20501;-69
2022/10/18 06:33:21;;;;;;;59.30;4.83;;;;;;;;;;5113701;28;20464;-68
2022/10/18 06:35:58;;;;;;;58.87;3.33;;;;;;;;;;5113629;27;20476;-68
2022/10/18 06:38:25;;;;;;;58.40;3.30;;;;;;;;;;5113581;28;20865;-69
2022/10/18 06:40:52;;;;;;;59.40;3.70;;;;;;;;;;5111426;28;20460;-68
2022/10/18 06:43:21;;;;;;;59.40;4.10;;;;;;;;;;5113779;28;20455;-69
2022/10/18 06:45:48;;;;;;;59.77;3.90;;;;;;;;;;5113726;28;20469;-69
2022/10/18 06:48:15;;;;;;;59.13;3.83;;;;;;;;;;5113321;28;20491;-69
2022/10/18 06:50:42;;;;;;;58.90;3.50;;;;;;;;;;5113116;28;20843;-68
2022/10/18 06:53:10;;;;;;;59.43;4.20;;;;;;;;;;5113482;28;20445;-68
2022/10/18 06:55:37;;;;;;;59.40;4.80;;;;;;;;;;5113385;28;20473;-69
2022/10/18 06:58:04;;;;;;;59.10;3.70;;;;;;;;;;5113136;28;20442;-69
2022/10/18 07:00:32;;;;;;;58.67;3.70;;;;;;;;;;5113003;28;20445;-68
2022/10/18 07:02:59;;;;;;;59.30;3.93;;;;;;;;;;5113029;28;20456;-69
2022/10/18 07:05:26;;;;;;;59.97;3.57;;;;;;;;;;5112862;28;20445;-69
2022/10/18 07:07:54;;;;;;;59.17;3.90;;;;;;;;;;5113034;28;20819;-69
2022/10/18 07:10:21;;;;;;;59.40;3.80;;;;;;;;;;5112755;28;20449;-69
2022/10/18 07:12:48;;;;;;;59.67;4.13;;;;;;;;;;5112429;28;20460;-69
2022/10/18 07:15:16;;;;;;;59.37;3.83;;;;;;;;;;5112901;28;20816;-69
2022/10/18 07:17:45;;;;;;;59.67;4.20;;;;;;;;;;5112768;28;20532;-69
2022/10/18 07:20:12;;;;;;;58.77;3.50;;;;;;;;;;5112651;28;20449;-70
2022/10/18 07:22:39;;;;;;;64.00;3.83;;;;;;;;;;5112868;28;20445;-69
2022/10/18 07:25:07;;;;;;;59.87;3.77;;;;;;;;;;5112683;28;20481;-68
2022/10/18 07:27:37;;;;;;;60.33;4.17;;;;;;;;;;5112600;28;20461;-68
2022/10/18 07:30:04;;;;;;;58.67;3.00;;;;;;;;;;5112374;28;21117;-68
2022/10/18 07:32:32;;;;;;;59.47;4.10;;;;;;;;;;5112426;28;20960;-69
2022/10/18 07:35:01;;;;;;;58.50;3.40;;;;;;;;;;5112535;28;20457;-68
2022/10/18 07:37:28;;;;;;;59.10;4.03;;;;;;;;;;5112512;28;20913;-69
2022/10/18 07:39:55;;;;;;;59.30;3.80;;;;;;;;;;5112210;28;20454;-69
2022/10/18 07:42:22;;;;;;;59.10;3.47;;;;;;;;;;5112390;28;20449;-69
2022/10/18 07:44:49;;;;;;;59.90;4.07;;;;;;;;;;5112207;28;20449;-68
2022/10/18 07:47:17;;;;;;;58.50;3.30;;;;;;;;;;5112299;28;20470;-69
2022/10/18 07:49:44;;;;;;;58.80;3.30;;;;;;;;;;5112241;28;20481;-69
2022/10/18 07:52:12;;;;;;;58.67;3.50;;;;;;;;;;5112227;28;20933;-69
2022/10/18 07:54:39;;;;;;;59.07;3.53;;;;;;;;;;5112144;28;20449;-69
2022/10/18 07:57:06;;;;;;;58.70;3.63;;;;;;;;;;5112290;28;20860;-69
2022/10/18 07:59:33;;;;;;;58.70;3.40;;;;;;;;;;5111673;28;20441;-69
2022/10/18 08:02:00;;;;;;;58.80;3.60;;;;;;;;;;5112345;28;20477;-68
2022/10/18 08:04:28;;;;;;;58.90;3.67;;;;;;;;;;5112071;28;20449;-68
2022/10/18 08:06:55;;;;;;;61.70;4.20;;;;;;;;;;5112041;28;20473;-68
2022/10/18 08:09:23;;;;;;;60.27;4.20;;;;;;;;;;5111722;28;20484;-68
2022/10/18 08:11:50;;;;;;;61.37;4.33;;;;;;;;;;5111961;28;20519;-69
2022/10/18 08:14:17;;;;;;;60.30;4.40;;;;;;;;;;5111952;28;20946;-69
2022/10/18 08:16:44;;;;;;;64.07;4.70;;;;;;;;;;5112131;28;20457;-69
2022/10/18 08:19:11;;;;;;;62.60;4.87;;;;;;;;;;5111750;28;20448;-68
2022/10/18 08:21:38;;;;;;;60.07;4.00;;;;;;;;;;5111965;28;20452;-68
2022/10/18 08:24:06;;;;;;;59.67;4.43;;;;;;;;;;5111986;28;20837;-69
2022/10/18 08:26:34;;;;;;;61.97;3.63;;;;;;;;;;5116103;28;20468;-69
2022/10/18 08:29:01;;;;;;;59.27;4.00;;;;;;;;;;5115988;28;20488;-70
2022/10/18 08:31:29;;;;;;;60.00;4.27;;;;;;;;;;5116226;28;20452;-70
2022/10/18 08:33:56;;;;;;;60.90;4.53;;;;;;;;;;5116131;28;20818;-70
2022/10/18 08:36:24;;;;;;;61.00;5.03;;;;;;;;;;5116068;28;20472;-69
2022/10/18 08:38:51;;;;;;;60.77;4.57;;;;;;;;;;5115626;27;20441;-70
2022/10/18 08:41:28;;;;;;;61.13;4.40;;;;;;;;;;5115806;28;20910;-68
2022/10/18 08:44:03;;;;;;;59.70;4.20;;;;;;;;;;5116064;27;20445;-69
2022/10/18 08:46:31;;;;;;;60.20;3.70;;;;;;;;;;5115952;28;20469;-71
2022/10/18 08:48:59;;;;;;;62.43;5.47;;;;;;;;;;5115389;28;20474;-69
2022/10/18 08:51:29;;;;;;;62.43;4.20;;;;;;;;;;5115738;28;20437;-69
2022/10/18 08:54:00;;;;;;;59.90;4.70;;;;;;;;;;5115947;28;20465;-69
2022/10/18 08:56:27;;;;;;;62.07;4.00;;;;;;;;;;5115892;28;20483;-70
2022/10/18 08:58:55;;;;;;;62.37;4.07;;;;;;;;;;5115390;28;20944;-69
2022/10/18 09:01:28;;;;;;;59.27;3.57;;;;;;;;;;5115609;28;20825;-68
2022/10/18 09:04:07;;;;;;;60.80;4.43;;;;;;;;;;5115425;28;20445;-69
2022/10/18 09:06:36;;;;;;;58.97;3.40;;;;;;;;;;5115343;28;20471;-70
2022/10/18 09:09:15;;;;;;;59.27;3.90;;;;;;;;;;5115132;28;20873;-71
2022/10/18 09:11:47;;;;;;;59.47;3.30;;;;;;;;;;5115516;27;20453;-70
2022/10/18 09:14:29;;;;;;;59.07;3.50;;;;;;;;;;5115341;28;20510;-70
2022/10/18 09:17:03;;;;;;;58.70;2.90;;;;;;;;;;5115386;28;20526;-70
2022/10/18 09:19:44;;;;;;;58.27;3.40;;;;;;;;;;5115000;28;20449;-68
2022/10/18 09:22:13;;;;;;;58.40;3.20;;;;;;;;;;5115177;28;20934;-69
2022/10/18 09:24:41;;;;;;;58.97;3.30;;;;;;;;;;5115039;27;20934;-68
2022/10/18 09:27:12;;;;;;;59.90;3.50;;;;;;;;;;5114908;28;20465;-68
2022/10/18 09:29:45;;;;;;;59.60;3.73;;;;;;;;;;5114850;27;20533;-68
2022/10/18 09:32:21;;;;;;;59.73;3.03;;;;;;;;;;5114976;28;20447;-68
2022/10/18 09:34:51;;;;;;;59.67;3.37;;;;;;;;;;5114850;28;20488;-69
2022/10/18 09:37:20;;;;;;;58.50;3.10;;;;;;;;;;5114474;28;20996;-69
2022/10/18 09:39:48;;;;;;;57.93;2.83;;;;;;;;;;5114510;27;20951;-68
2022/10/18 09:42:19;;;;;;;58.10;2.70;;;;;;;;;;5114982;28;20445;-68
2022/10/18 09:44:48;;;;;;;57.60;2.70;;;;;;;;;;5114969;28;20442;-70
2022/10/18 09:47:20;;;;;;;57.63;2.60;;;;;;;;;;5114653;28;20472;-68
2022/10/18 09:49:49;;;;;;;58.00;2.50;;;;;;;;;;5114164;28;20573;-68
2022/10/18 09:52:17;;;;;;;57.70;2.50;;;;;;;;;;5114822;28;20480;-68
2022/10/18 09:54:45;;;;;;;57.13;2.10;;;;;;;;;;5114443;28;20948;-68
2022/10/18 09:57:15;;;;;;;58.10;2.70;;;;;;;;;;5114375;28;21016;-69
2022/10/18 09:59:43;;;;;;;58.50;2.63;;;;;;;;;;5114214;28;20445;-70
2022/10/18 10:02:13;;;;;;;59.70;2.17;;;;;;;;;;5114440;28;20466;-68
2022/10/18 10:04:42;;;;;;;57.70;2.53;;;;;;;;;;5114318;28;20441;-69
2022/10/18 10:07:09;;;;;;;57.23;2.40;;;;;;;;;;5114422;28;20465;-71
2022/10/18 10:09:40;;;;;;;57.40;2.40;;;;;;;;;;5114082;28;20489;-66
2022/10/18 10:12:25;;;;;;;58.20;3.00;;;;;;;;;;5114276;28;20445;-68
2022/10/18 10:14:52;;;;;;;58.20;2.30;;;;;;;;;;5114136;28;20449;-67
2022/10/18 10:17:24;;;;;;;57.80;2.50;;;;;;;;;;5114008;28;20977;-68
2022/10/18 10:20:00;;;;;;;57.43;2.37;;;;;;;;;;5113862;28;20446;-68
2022/10/18 10:22:28;;;;;;;57.67;2.37;;;;;;;;;;5114144;27;20460;-69
2022/10/18 10:24:56;;;;;;;57.97;2.50;;;;;;;;;;5113884;28;20454;-68
2022/10/18 10:27:29;;;;;;;57.40;2.37;;;;;;;;;;5113717;28;20509;-68
2022/10/18 10:29:57;;;;;;;59.77;3.37;;;;;;;;;;5113610;28;20942;-66
2022/10/18 10:32:29;;;;;;;57.60;2.40;;;;;;;;;;5113914;28;20448;-67
2022/10/18 10:34:58;;;;;;;58.90;2.53;;;;;;;;;;5113624;28;20814;-66
2022/10/18 10:37:33;;;;;;;62.70;2.70;;;;;;;;;;5113711;28;20472;-66
2022/10/18 10:40:21;;;;;;;58.33;2.40;;;;;;;;;;5113208;28;20824;-66
2022/10/18 10:43:06;;;;;;;56.90;2.30;;;;;;;;;;5108799;27;20449;-68
2022/10/18 10:45:34;;;;;;;56.50;2.20;;;;;;;;;;5113644;28;20494;-69
2022/10/18 10:48:06;;;;;;;56.70;2.27;;;;;;;;;;5112697;28;20450;-65
2022/10/18 10:50:47;;;;;;;57.57;3.07;;;;;;;;;;5113332;28;20499;-66
2022/10/18 10:53:27;;;;;;;56.40;2.40;;;;;;;;;;5113342;28;20437;-67
2022/10/18 10:55:54;;;;;;;57.50;2.40;;;;;;;;;;5113515;28;20472;-66
2022/10/18 10:58:22;;;;;;;57.93;2.60;;;;;;;;;;5113128;28;20441;-66
2022/10/18 11:00:49;;;;;;;57.03;2.90;;;;;;;;;;5112801;28;20440;-66
2022/10/18 11:03:18;;;;;;;56.90;2.60;;;;;;;;;;5113165;28;20442;-67
2022/10/18 11:05:47;;;;;;;57.10;2.60;;;;;;;;;;5113142;28;20466;-66
2022/10/18 11:08:16;;;;;;;56.93;2.40;;;;;;;;;;5113084;28;20445;-68
2022/10/18 11:10:50;;;;;;;58.23;2.60;;;;;;;;;;5112753;28;20827;-69
2022/10/18 11:13:23;;;;;;;56.77;2.03;;;;;;;;;;5112680;28;20449;-68
2022/10/18 11:15:53;;;;;;;58.43;2.47;;;;;;;;;;5113023;28;20473;-68
2022/10/18 11:18:22;;;;;;;58.00;3.40;;;;;;;;;;5110953;28;20821;-68
2022/10/18 11:20:53;;;;;;;58.47;2.93;;;;;;;;;;5112300;28;20502;-68
2022/10/18 11:23:23;;;;;;;57.30;2.10;;;;;;;;;;5112416;28;20445;-68
2022/10/18 11:26:05;;;;;;;58.27;2.67;;;;;;;;;;5112225;28;20476;-68
2022/10/18 11:28:43;;;;;;;58.30;2.83;;;;;;;;;;5110160;28;20806;-68
2022/10/18 11:31:15;;;;;;;58.00;2.50;;;;;;;;;;5112752;28;20438;-68
2022/10/18 11:33:50;;;;;;;58.17;2.50;;;;;;;;;;5112673;28;20446;-68
2022/10/18 11:36:21;;;;;;;58.17;2.20;;;;;;;;;;5112353;28;20467;-68
2022/10/18 11:38:54;;;;;;;58.07;2.47;;;;;;;;;;5112360;28;20441;-68
2022/10/18 11:41:30;;;;;;;58.00;2.27;;;;;;;;;;5112544;28;20452;-68
2022/10/18 11:43:58;;;;;;;58.20;2.70;;;;;;;;;;5112362;28;20445;-69
2022/10/18 11:46:36;;;;;;;59.00;3.23;;;;;;;;;;5112401;28;20467;-69
2022/10/18 11:49:12;;;;;;;57.97;2.97;;;;;;;;;;5109975;28;20452;-68
2022/10/18 11:51:47;;;;;;;58.10;2.77;;;;;;;;;;5112255;28;21005;-69
2022/10/18 11:54:28;;;;;;;57.50;2.53;;;;;;;;;;5112386;28;20459;-68
2022/10/18 11:57:00;;;;;;;57.37;2.60;;;;;;;;;;5112031;28;20931;-69
2022/10/18 11:59:29;;;;;;;57.47;2.30;;;;;;;;;;5111854;28;20847;-68
2022/10/18 12:02:12;;;;;;;58.47;2.60;;;;;;;;;;5111947;28;20464;-68
2022/10/18 12:04:42;;;;;;;57.60;2.30;;;;;;;;;;5112216;28;20445;-68
2022/10/18 12:07:13;;;;;;;57.70;2.37;;;;;;;;;;5111832;28;20475;-68
2022/10/18 12:09:42;;;;;;;57.67;2.10;;;;;;;;;;5111101;28;20481;-68
2022/10/18 12:12:13;;;;;;;57.60;2.47;;;;;;;;;;5111697;28;20529;-68
2022/10/18 12:14:43;;;;;;;57.53;2.47;;;;;;;;;;5112086;28;20555;-68
2022/10/18 12:17:13;;;;;;;57.87;2.20;;;;;;;;;;5111967;28;20465;-69
2022/10/18 12:19:41;;;;;;;58.07;2.77;;;;;;;;;;5111161;28;20450;-69
2022/10/18 12:22:14;;;;;;;57.70;2.27;;;;;;;;;;5096662;28;20550;-69
2022/10/18 12:24:42;;;;;;;62.17;2.83;;;;;;;;;;5091692;28;20460;-68
2022/10/18 12:27:12;;;;;;;57.90;2.40;;;;;;;;;;5091291;28;20470;-68
2022/10/18 12:29:44;;;;;;;58.30;2.90;;;;;;;;;;5090761;28;20997;-68
2022/10/18 12:32:13;;;;;;;57.90;2.47;;;;;;;;;;5091504;28;20450;-68
2022/10/18 12:34:43;;;;;;;57.50;2.47;;;;;;;;;;5091408;28;20462;-68
2022/10/18 12:37:26;;;;;;;57.27;2.07;;;;;;;;;;5091402;28;20466;-69
2022/10/18 12:39:58;;;;;;;58.27;2.47;;;;;;;;;;5091044;28;20817;-68
2022/10/18 12:42:27;;;;;;;58.73;3.10;;;;;;;;;;5091395;28;20453;-69
2022/10/18 12:45:01;;;;;;;58.40;3.20;;;;;;;;;;5091075;28;20445;-68
2022/10/18 12:47:29;;;;;;;58.17;2.27;;;;;;;;;;5091394;28;20470;-67
2022/10/18 12:49:58;;;;;;;58.83;2.70;;;;;;;;;;5090826;28;20478;-68
2022/10/18 12:52:26;;;;;;;57.60;2.63;;;;;;;;;;5091084;28;20504;-67
2022/10/18 12:55:06;;;;;;;58.00;2.57;;;;;;;;;;5110233;28;20494;-69
2022/10/18 12:57:52;;;;;;;58.10;2.80;;;;;;;;;;5111421;28;20465;-68
2022/10/18 13:00:34;;;;;;;57.77;2.47;;;;;;;;;;5111216;28;20439;-67
2022/10/18 13:03:16;;;;;;;57.50;2.40;;;;;;;;;;5111397;28;20460;-68
2022/10/18 13:05:57;;;;;;;57.00;2.13;;;;;;;;;;5111165;27;20472;-68
2022/10/18 13:08:38;;;;;;;57.97;2.40;;;;;;;;;;5111618;28;20448;-69
2022/10/18 13:11:29;;;;;;;57.90;2.33;;;;;;;;;;5112772;28;21039;-68
2022/10/18 13:14:11;;;;;;;57.20;2.50;;;;;;;;;;5099677;27;20457;-69
2022/10/18 13:16:43;;;;;;;57.07;2.17;;;;;;;;;;5115253;28;20465;-68
2022/10/18 13:19:17;;;;;;;57.60;2.10;;;;;;;;;;5114752;28;20468;-69
2022/10/18 13:21:48;;;;;;;57.20;2.30;;;;;;;;;;5115524;28;20451;-67
2022/10/18 13:24:23;;;;;;;57.27;2.10;;;;;;;;;;5114959;28;20445;-68
2022/10/18 13:26:56;;;;;;;57.07;1.80;;;;;;;;;;5094383;28;20519;-68
2022/10/18 13:29:31;;;;;;;57.30;1.90;;;;;;;;;;5111034;28;20528;-68
2022/10/18 13:32:02;;;;;;;57.73;2.43;;;;;;;;;;5114916;28;20569;-68
2022/10/18 13:34:33;;;;;;;58.17;2.20;;;;;;;;;;5115171;28;20798;-69
2022/10/18 13:37:01;;;;;;;57.50;2.00;;;;;;;;;;5114726;28;20983;-69
2022/10/18 13:39:29;;;;;;;57.40;2.10;;;;;;;;;;5114414;28;20442;-66
2022/10/18 13:42:15;;;;;;;57.37;2.27;;;;;;;;;;5114711;28;20824;-67
2022/10/18 13:44:45;;;;;;;57.87;2.20;;;;;;;;;;5114729;28;20453;-67
2022/10/18 13:47:13;;;;;;;56.97;1.90;;;;;;;;;;5114611;27;20466;-68
2022/10/18 13:50:04;;;;;;;57.20;2.50;;;;;;;;;;5114071;28;20445;-66
2022/10/18 13:52:38;;;;;;;56.60;1.70;;;;;;;;;;5099161;28;20449;-66
2022/10/18 13:55:16;;;;;;;56.87;2.47;;;;;;;;;;5114489;28;20445;-69
2022/10/18 13:57:49;;;;;;;56.70;2.30;;;;;;;;;;5114341;28;20446;-67
2022/10/18 14:00:27;;;;;;;56.67;2.13;;;;;;;;;;5114277;28;20442;-67
2022/10/18 14:03:05;;;;;;;57.07;2.10;;;;;;;;;;5114349;28;20820;-66
2022/10/18 14:05:42;;;;;;;57.10;2.17;;;;;;;;;;5114313;28;20445;-68
2022/10/18 14:08:13;;;;;;;57.50;2.20;;;;;;;;;;5114063;28;20441;-67
2022/10/18 14:10:43;;;;;;;57.43;2.30;;;;;;;;;;5114172;28;20503;-68
2022/10/18 14:13:17;;;;;;;57.80;2.50;;;;;;;;;;5114210;28;20464;-67
2022/10/18 14:15:48;;;;;;;58.23;2.20;;;;;;;;;;5114107;28;20470;-68
2022/10/18 14:18:17;;;;;;;57.53;2.47;;;;;;;;;;5113919;28;20462;-68
2022/10/18 14:20:47;;;;;;;57.67;2.20;;;;;;;;;;5113625;28;20813;-67
2022/10/18 14:23:16;;;;;;;58.57;2.80;;;;;;;;;;5113014;28;20441;-69
2022/10/18 14:25:43;;;;;;;58.20;2.50;;;;;;;;;;5114088;28;20472;-67
2022/10/18 14:28:12;;;;;;;57.87;2.37;;;;;;;;;;5113951;28;20453;-68
2022/10/18 14:30:53;;;;;;;58.03;2.50;;;;;;;;;;5113449;28;20481;-68
2022/10/18 14:33:32;;;;;;;58.00;2.80;;;;;;;;;;5113665;28;20821;-67
2022/10/18 14:36:00;;;;;;;57.87;2.30;;;;;;;;;;5113753;28;20481;-68
2022/10/18 14:38:27;;;;;;;60.77;3.10;;;;;;;;;;5113837;28;20449;-68
2022/10/18 14:41:04;;;;;;;58.57;2.90;;;;;;;;;;5113761;28;20442;-68
2022/10/18 14:43:32;;;;;;;58.13;2.60;;;;;;;;;;5113670;28;20519;-68
2022/10/18 14:46:10;;;;;;;57.80;2.37;;;;;;;;;;5113589;28;20476;-68